Time,TemperatureF,DewpointF,PressureIn,WindDirection,WindDirectionDegrees,WindSpeedMPH,WindSpeedGustMPH,Humidity,HourlyPrecipIn,Conditions,Clouds,dailyrainin,SoftwareType,DateUTC
2013-07-06 00:01:00,60.0,43.0,-100.00,NNW,330,6.0,7.0,53,-99.99,,,-99.99,,2013-07-06 06:01:00,
2013-07-06 00:12:00,60.0,43.0,-100.00,NW,325,6.0,9.0,53,-99.99,,,-99.99,,2013-07-06 06:12:00,
2013-07-06 00:34:00,61.0,44.0,-100.00,NNW,340,7.0,11.0,53,-99.99,,,-99.99,,2013-07-06 06:34:00,
2013-07-06 00:43:00,61.0,44.0,-100.00,North,0,7.0,9.0,54,-99.99,,,-99.99,,2013-07-06 06:43:00,
2013-07-06 01:02:00,62.0,43.0,-100.00,NNE,20,4.0,8.0,50,-99.99,,,-99.99,,2013-07-06 07:02:00,
2013-07-06 01:33:00,58.0,43.0,-100.00,SSE,160,6.0,7.0,57,-99.99,,,-99.99,,2013-07-06 07:33:00,
2013-07-06 01:44:00,58.0,43.0,-100.00,South,185,1.0,4.0,57,-99.99,,,-99.99,,2013-07-06 07:44:00,
2013-07-06 02:11:00,56.0,42.0,-100.00,SE,135,1.0,4.0,58,-99.99,,,-99.99,,2013-07-06 08:11:00,
2013-07-06 02:43:00,55.0,42.0,-100.00,SW,235,1.0,4.0,61,-99.99,,,-99.99,,2013-07-06 08:43:00,
2013-07-06 02:54:00,56.0,43.0,-100.00,West,265,0.0,3.0,60,-99.99,,,-99.99,,2013-07-06 08:54:00,
2013-07-06 03:02:00,56.0,43.0,-100.00,SW,235,0.0,0.0,60,-99.99,,,-99.99,,2013-07-06 09:02:00,
2013-07-06 03:43:00,53.0,42.0,-100.00,East,90,2.0,4.0,64,-99.99,,,-99.99,,2013-07-06 09:43:00,
2013-07-06 03:52:00,54.0,43.0,-100.00,ENE,75,1.0,7.0,66,-99.99,,,-99.99,,2013-07-06 09:52:00,
2013-07-06 04:02:00,54.0,44.0,-100.00,East,95,4.0,4.0,66,-99.99,,,-99.99,,2013-07-06 10:02:00,
2013-07-06 04:42:00,53.0,44.0,-100.00,East,100,5.0,6.0,72,-99.99,,,-99.99,,2013-07-06 10:42:00,
2013-07-06 05:42:00,54.0,42.0,-100.00,WSW,245,8.0,12.0,62,-99.99,,,-99.99,,2013-07-06 11:42:00,
2013-07-06 05:53:00,55.0,43.0,-100.00,West,275,4.0,10.0,62,-99.99,,,-99.99,,2013-07-06 11:53:00,
2013-07-06 06:01:00,56.0,44.0,-100.00,West,280,3.0,6.0,63,-99.99,,,-99.99,,2013-07-06 12:01:00,
2013-07-06 06:11:00,55.0,42.0,-100.00,WSW,245,6.0,7.0,60,-99.99,,,-99.99,,2013-07-06 12:11:00,
2013-07-06 06:43:00,53.0,40.0,-100.00,SSW,210,6.0,9.0,62,-99.99,,,-99.99,,2013-07-06 12:43:00,
2013-07-06 07:43:00,63.0,40.0,-100.00,WNW,290,4.0,7.0,42,-99.99,,,-99.99,,2013-07-06 13:43:00,
2013-07-06 08:02:00,66.0,39.0,-100.00,West,280,6.0,7.0,37,-99.99,,,-99.99,,2013-07-06 14:02:00,
2013-07-06 08:42:00,68.0,40.0,-100.00,NNW,330,6.0,9.0,35,-99.99,,,-99.99,,2013-07-06 14:42:00,
2013-07-06 09:02:00,68.0,40.0,-100.00,NW,325,4.0,9.0,35,-99.99,,,-99.99,,2013-07-06 15:02:00,
2013-07-06 09:12:00,70.0,41.0,-100.00,NW,310,5.0,7.0,34,-99.99,,,-99.99,,2013-07-06 15:12:00,
2013-07-06 09:33:00,71.0,40.0,-100.00,NW,320,6.0,10.0,32,-99.99,,,-99.99,,2013-07-06 15:33:00,
2013-07-06 09:43:00,71.0,40.0,-100.00,NW,320,5.0,8.0,33,-99.99,,,-99.99,,2013-07-06 15:43:00,
2013-07-06 10:14:00,70.0,41.0,-100.00,North,0,4.0,8.0,34,-99.99,,,-99.99,,2013-07-06 16:14:00,
2013-07-06 10:40:00,74.0,40.0,-100.00,NW,320,4.0,7.0,29,-99.99,,,-99.99,,2013-07-06 16:40:00,
2013-07-06 11:09:00,75.0,38.0,-100.00,North,0,6.0,9.0,25,-99.99,,,-99.99,,2013-07-06 17:09:00,
2013-07-06 11:19:00,76.0,36.0,-100.00,NE,55,2.0,8.0,23,-99.99,,,-99.99,,2013-07-06 17:19:00,
2013-07-06 11:49:00,76.0,35.0,-100.00,North,0,4.0,9.0,22,-99.99,,,-99.99,,2013-07-06 17:49:00,
2013-07-06 12:07:00,77.0,35.0,-100.00,NNE,20,3.0,12.0,21,-99.99,,,-99.99,,2013-07-06 18:07:00,
2013-07-06 12:20:00,76.0,33.0,-100.00,North,0,7.0,12.0,21,-99.99,,,-99.99,,2013-07-06 18:20:00,
2013-07-06 12:50:00,78.0,35.0,-100.00,North,355,9.0,13.0,21,-99.99,,,-99.99,,2013-07-06 18:50:00,
2013-07-06 13:08:00,79.0,35.0,-100.00,NNW,340,15.0,20.0,19,-99.99,,,-99.99,,2013-07-06 19:08:00,
2013-07-06 13:19:00,81.0,35.0,-100.00,West,275,4.0,17.0,19,-99.99,,,-99.99,,2013-07-06 19:19:00,
2013-07-06 14:08:00,79.0,33.0,-100.00,NNW,340,12.0,19.0,18,-99.99,,,-99.99,,2013-07-06 20:08:00,
2013-07-06 14:41:00,82.0,33.0,-100.00,NW,325,9.0,16.0,17,-99.99,,,-99.99,,2013-07-06 20:41:00,
2013-07-06 15:28:00,81.0,29.0,-100.00,SE,130,7.0,12.0,15,-99.99,,,-99.99,,2013-07-06 21:28:00,
2013-07-06 15:50:00,82.0,32.0,-100.00,NW,320,6.0,9.0,16,-99.99,,,-99.99,,2013-07-06 21:50:00,
2013-07-06 17:09:00,77.0,33.0,-100.00,West,265,20.0,24.0,20,-99.99,,,-99.99,,2013-07-06 23:09:00,
2013-07-06 17:49:00,77.0,32.0,-100.00,West,265,16.0,22.0,19,-99.99,,,-99.99,,2013-07-06 23:49:00,
2013-07-06 18:10:00,76.0,34.0,-100.00,NW,305,21.0,38.0,21,-99.99,,,-99.99,,2013-07-07 00:10:00,
2013-07-06 18:19:00,74.0,35.0,-100.00,NNW,345,21.0,37.0,23,-99.99,,,-99.99,,2013-07-07 00:19:00,
2013-07-06 18:49:00,73.0,34.0,-100.00,NNW,335,21.0,27.0,23,-99.99,,,-99.99,,2013-07-07 00:49:00,
2013-07-06 19:19:00,72.0,33.0,-100.00,NW,310,21.0,29.0,24,-99.99,,,-99.99,,2013-07-07 01:19:00,
2013-07-06 19:38:00,69.0,32.0,-100.00,NNW,330,22.0,29.0,25,-99.99,,,-99.99,,2013-07-07 01:38:00,
2013-07-06 19:49:00,69.0,32.0,-100.00,NNW,330,26.0,36.0,25,-99.99,,,-99.99,,2013-07-07 01:49:00,
2013-07-06 19:56:00,68.0,31.0,-100.00,NNW,330,20.0,31.0,25,-99.99,,,-99.99,,2013-07-07 01:56:00,
2013-07-06 20:17:00,65.0,30.0,-100.00,NNW,335,22.0,31.0,27,-99.99,,,-99.99,,2013-07-07 02:17:00,
2013-07-06 20:54:00,62.0,31.0,-100.00,North,350,13.0,20.0,29,-99.99,,,-99.99,,2013-07-07 02:54:00,
2013-07-06 21:26:00,61.0,31.0,-100.00,North,355,10.0,14.0,32,-99.99,,,-99.99,,2013-07-07 03:26:00,
2013-07-06 21:35:00,61.0,32.0,-100.00,North,0,9.0,13.0,32,-99.99,,,-99.99,,2013-07-07 03:35:00,
2013-07-06 21:55:00,62.0,33.0,-100.00,NNE,15,6.0,7.0,33,-99.99,,,-99.99,,2013-07-07 03:55:00,
2013-07-06 22:01:00,62.0,33.0,-100.00,NNW,335,5.0,7.0,33,-99.99,,,-99.99,,2013-07-07 04:01:00,
2013-07-06 22:11:00,62.0,33.0,-100.00,NNE,20,6.0,7.0,33,-99.99,,,-99.99,,2013-07-07 04:11:00,
2013-07-06 22:21:00,62.0,33.0,-100.00,North,0,4.0,7.0,33,-99.99,,,-99.99,,2013-07-07 04:21:00,
2013-07-06 22:31:00,62.0,33.0,-100.00,NNE,15,6.0,8.0,33,-99.99,,,-99.99,,2013-07-07 04:31:00,
2013-07-06 22:51:00,63.0,33.0,-100.00,NNE,25,7.0,10.0,33,-99.99,,,-99.99,,2013-07-07 04:51:00,
2013-07-06 23:01:00,63.0,34.0,-100.00,North,10,9.0,12.0,33,-99.99,,,-99.99,,2013-07-07 05:01:00,
2013-07-06 23:11:00,63.0,34.0,-100.00,North,0,12.0,16.0,32,-99.99,,,-99.99,,2013-07-07 05:11:00,
2013-07-06 23:21:00,62.0,33.0,-100.00,NNW,330,10.0,16.0,34,-99.99,,,-99.99,,2013-07-07 05:21:00,
2013-07-06 23:41:00,60.0,35.0,-100.00,North,5,17.0,22.0,38,-99.99,,,-99.99,,2013-07-07 05:41:00,
2013-07-06 23:51:00,58.0,41.0,-100.00,North,350,19.0,27.0,53,-99.99,,,-99.99,,2013-07-07 05:51:00,